sensor_id;sensor_type;location;lat;lon;timestamp;P1;durP1;ratioP1;P2;durP2;ratioP2
6941;SDS011;3510;43.200;27.920;2024-02-21T00:00:27;27.17;;;16.27;;
6941;SDS011;3510;43.200;27.920;2024-02-21T00:02:54;23.67;;;12.03;;
6941;SDS011;3510;43.200;27.920;2024-02-21T00:05:23;18.30;;;11.00;;
6941;SDS011;3510;43.200;27.920;2024-02-21T00:07:50;15.07;;;10.03;;
6941;SDS011;3510;43.200;27.920;2024-02-21T00:10:16;14.73;;;10.43;;
6941;SDS011;3510;43.200;27.920;2024-02-21T00:12:45;20.23;;;14.13;;
6941;SDS011;3510;43.200;27.920;2024-02-21T00:15:11;19.90;;;13.67;;
6941;SDS011;3510;43.200;27.920;2024-02-21T00:17:38;22.37;;;11.87;;
6941;SDS011;3510;43.200;27.920;2024-02-21T00:20:06;27.57;;;13.07;;
6941;SDS011;3510;43.200;27.920;2024-02-21T00:22:33;14.83;;;10.43;;
6941;SDS011;3510;43.200;27.920;2024-02-21T00:25:00;15.93;;;11.47;;
6941;SDS011;3510;43.200;27.920;2024-02-21T00:27:27;18.57;;;11.57;;
6941;SDS011;3510;43.200;27.920;2024-02-21T00:29:56;20.63;;;15.40;;
6941;SDS011;3510;43.200;27.920;2024-02-21T00:32:22;18.20;;;11.77;;
6941;SDS011;3510;43.200;27.920;2024-02-21T00:34:49;18.80;;;11.53;;
6941;SDS011;3510;43.200;27.920;2024-02-21T00:37:17;14.33;;;11.73;;
6941;SDS011;3510;43.200;27.920;2024-02-21T00:39:44;20.00;;;12.30;;
6941;SDS011;3510;43.200;27.920;2024-02-21T00:42:10;18.50;;;11.70;;
6941;SDS011;3510;43.200;27.920;2024-02-21T00:44:37;15.80;;;11.03;;
6941;SDS011;3510;43.200;27.920;2024-02-21T00:47:06;20.93;;;10.90;;
6941;SDS011;3510;43.200;27.920;2024-02-21T00:49:33;20.53;;;10.97;;
6941;SDS011;3510;43.200;27.920;2024-02-21T00:51:59;12.63;;;9.83;;
6941;SDS011;3510;43.200;27.920;2024-02-21T00:54:26;15.80;;;10.63;;
6941;SDS011;3510;43.200;27.920;2024-02-21T00:56:53;12.83;;;9.97;;
6941;SDS011;3510;43.200;27.920;2024-02-21T00:59:20;16.33;;;10.03;;
6941;SDS011;3510;43.200;27.920;2024-02-21T01:01:47;19.97;;;13.60;;
6941;SDS011;3510;43.200;27.920;2024-02-21T01:04:15;13.87;;;8.77;;
6941;SDS011;3510;43.200;27.920;2024-02-21T01:06:42;12.23;;;7.93;;
6941;SDS011;3510;43.200;27.920;2024-02-21T01:09:09;16.43;;;8.67;;
6941;SDS011;3510;43.200;27.920;2024-02-21T01:11:36;13.37;;;8.67;;
6941;SDS011;3510;43.200;27.920;2024-02-21T01:14:03;18.13;;;13.27;;
6941;SDS011;3510;43.200;27.920;2024-02-21T01:16:30;13.53;;;8.87;;
6941;SDS011;3510;43.200;27.920;2024-02-21T01:18:56;16.50;;;9.90;;
6941;SDS011;3510;43.200;27.920;2024-02-21T01:21:25;16.70;;;9.53;;
6941;SDS011;3510;43.200;27.920;2024-02-21T01:23:51;20.17;;;10.80;;
6941;SDS011;3510;43.200;27.920;2024-02-21T01:26:21;18.40;;;10.63;;
6941;SDS011;3510;43.200;27.920;2024-02-21T01:28:47;17.03;;;11.17;;
6941;SDS011;3510;43.200;27.920;2024-02-21T01:31:14;10.90;;;8.77;;
6941;SDS011;3510;43.200;27.920;2024-02-21T01:33:41;12.27;;;9.13;;
6941;SDS011;3510;43.200;27.920;2024-02-21T01:36:08;17.37;;;9.57;;
6941;SDS011;3510;43.200;27.920;2024-02-21T01:38:36;16.80;;;9.13;;
6941;SDS011;3510;43.200;27.920;2024-02-21T01:41:03;23.03;;;14.07;;
6941;SDS011;3510;43.200;27.920;2024-02-21T01:43:30;16.90;;;10.00;;
6941;SDS011;3510;43.200;27.920;2024-02-21T01:45:57;15.53;;;9.73;;
6941;SDS011;3510;43.200;27.920;2024-02-21T01:48:24;20.00;;;9.30;;
6941;SDS011;3510;43.200;27.920;2024-02-21T01:50:52;16.83;;;10.47;;
6941;SDS011;3510;43.200;27.920;2024-02-21T01:53:21;32.00;;;11.80;;
6941;SDS011;3510;43.200;27.920;2024-02-21T01:55:52;15.93;;;11.00;;
6941;SDS011;3510;43.200;27.920;2024-02-21T01:58:19;21.33;;;11.30;;
6941;SDS011;3510;43.200;27.920;2024-02-21T02:00:47;19.07;;;11.50;;
6941;SDS011;3510;43.200;27.920;2024-02-21T02:03:14;33.70;;;13.47;;
6941;SDS011;3510;43.200;27.920;2024-02-21T02:05:42;30.03;;;16.97;;
6941;SDS011;3510;43.200;27.920;2024-02-21T02:08:11;21.93;;;11.70;;
6941;SDS011;3510;43.200;27.920;2024-02-21T02:10:38;24.07;;;13.07;;
6941;SDS011;3510;43.200;27.920;2024-02-21T02:13:07;21.43;;;14.40;;
6941;SDS011;3510;43.200;27.920;2024-02-21T02:15:38;24.97;;;11.80;;
6941;SDS011;3510;43.200;27.920;2024-02-21T02:18:06;19.80;;;12.20;;
6941;SDS011;3510;43.200;27.920;2024-02-21T02:20:33;19.87;;;11.70;;
6941;SDS011;3510;43.200;27.920;2024-02-21T02:23:00;22.60;;;12.77;;
6941;SDS011;3510;43.200;27.920;2024-02-21T02:25:37;22.67;;;11.83;;
6941;SDS011;3510;43.200;27.920;2024-02-21T02:28:05;28.50;;;11.73;;
6941;SDS011;3510;43.200;27.920;2024-02-21T02:30:32;22.47;;;11.50;;
6941;SDS011;3510;43.200;27.920;2024-02-21T02:33:01;29.40;;;15.63;;
6941;SDS011;3510;43.200;27.920;2024-02-21T02:35:28;27.60;;;11.17;;
6941;SDS011;3510;43.200;27.920;2024-02-21T02:37:55;23.87;;;12.13;;
6941;SDS011;3510;43.200;27.920;2024-02-21T02:40:21;30.30;;;11.13;;
6941;SDS011;3510;43.200;27.920;2024-02-21T02:42:50;26.53;;;10.63;;
6941;SDS011;3510;43.200;27.920;2024-02-21T02:45:20;33.23;;;15.43;;
6941;SDS011;3510;43.200;27.920;2024-02-21T02:47:48;13.70;;;10.13;;
6941;SDS011;3510;43.200;27.920;2024-02-21T02:50:15;23.67;;;14.20;;
6941;SDS011;3510;43.200;27.920;2024-02-21T02:52:42;15.33;;;8.90;;
6941;SDS011;3510;43.200;27.920;2024-02-21T02:55:08;25.93;;;10.90;;
6941;SDS011;3510;43.200;27.920;2024-02-21T02:57:35;11.83;;;8.13;;
6941;SDS011;3510;43.200;27.920;2024-02-21T03:00:05;20.43;;;11.03;;
6941;SDS011;3510;43.200;27.920;2024-02-21T03:02:33;15.73;;;11.33;;
6941;SDS011;3510;43.200;27.920;2024-02-21T03:05:00;17.80;;;11.93;;
6941;SDS011;3510;43.200;27.920;2024-02-21T03:07:27;17.50;;;11.87;;
6941;SDS011;3510;43.200;27.920;2024-02-21T03:09:54;19.07;;;12.27;;
6941;SDS011;3510;43.200;27.920;2024-02-21T03:12:20;18.53;;;12.20;;
6941;SDS011;3510;43.200;27.920;2024-02-21T03:14:52;17.00;;;11.23;;
6941;SDS011;3510;43.200;27.920;2024-02-21T03:17:20;23.10;;;13.13;;
6941;SDS011;3510;43.200;27.920;2024-02-21T03:19:47;19.80;;;12.17;;
6941;SDS011;3510;43.200;27.920;2024-02-21T03:22:15;20.70;;;12.77;;
6941;SDS011;3510;43.200;27.920;2024-02-21T03:24:42;13.47;;;10.93;;
6941;SDS011;3510;43.200;27.920;2024-02-21T03:27:09;22.67;;;13.47;;
6941;SDS011;3510;43.200;27.920;2024-02-21T03:29:35;22.20;;;12.90;;
6941;SDS011;3510;43.200;27.920;2024-02-21T03:32:02;20.77;;;13.10;;
6941;SDS011;3510;43.200;27.920;2024-02-21T03:34:31;15.50;;;12.13;;
6941;SDS011;3510;43.200;27.920;2024-02-21T03:36:58;18.73;;;13.07;;
6941;SDS011;3510;43.200;27.920;2024-02-21T03:39:25;21.67;;;13.40;;
6941;SDS011;3510;43.200;27.920;2024-02-21T03:41:52;22.10;;;14.90;;
6941;SDS011;3510;43.200;27.920;2024-02-21T03:44:19;22.23;;;13.43;;
6941;SDS011;3510;43.200;27.920;2024-02-21T03:46:46;21.93;;;13.93;;
6941;SDS011;3510;43.200;27.920;2024-02-21T03:49:12;32.17;;;15.33;;
6941;SDS011;3510;43.200;27.920;2024-02-21T03:51:41;23.20;;;15.20;;
6941;SDS011;3510;43.200;27.920;2024-02-21T03:54:07;26.33;;;14.30;;
6941;SDS011;3510;43.200;27.920;2024-02-21T03:56:36;20.70;;;10.37;;
6941;SDS011;3510;43.200;27.920;2024-02-21T03:59:05;28.27;;;16.10;;
6941;SDS011;3510;43.200;27.920;2024-02-21T04:01:31;25.83;;;16.13;;
6941;SDS011;3510;43.200;27.920;2024-02-21T04:03:58;30.60;;;16.23;;
6941;SDS011;3510;43.200;27.920;2024-02-21T04:06:25;26.17;;;13.00;;
6941;SDS011;3510;43.200;27.920;2024-02-21T04:08:53;22.13;;;13.67;;
6941;SDS011;3510;43.200;27.920;2024-02-21T04:11:20;24.53;;;15.57;;
6941;SDS011;3510;43.200;27.920;2024-02-21T04:13:47;29.20;;;14.53;;
6941;SDS011;3510;43.200;27.920;2024-02-21T04:16:15;24.23;;;16.03;;
6941;SDS011;3510;43.200;27.920;2024-02-21T04:18:42;32.40;;;14.97;;
6941;SDS011;3510;43.200;27.920;2024-02-21T04:21:09;26.33;;;16.47;;
6941;SDS011;3510;43.200;27.920;2024-02-21T04:23:36;27.47;;;15.70;;
6941;SDS011;3510;43.200;27.920;2024-02-21T04:26:04;28.97;;;16.10;;
6941;SDS011;3510;43.200;27.920;2024-02-21T04:28:31;28.33;;;14.83;;
6941;SDS011;3510;43.200;27.920;2024-02-21T04:30:58;23.80;;;16.60;;
6941;SDS011;3510;43.200;27.920;2024-02-21T04:33:25;27.83;;;17.20;;
6941;SDS011;3510;43.200;27.920;2024-02-21T04:35:52;29.30;;;13.27;;
6941;SDS011;3510;43.200;27.920;2024-02-21T04:38:20;23.83;;;14.03;;
6941;SDS011;3510;43.200;27.920;2024-02-21T04:40:47;33.10;;;19.30;;
6941;SDS011;3510;43.200;27.920;2024-02-21T04:43:15;36.13;;;21.53;;
6941;SDS011;3510;43.200;27.920;2024-02-21T04:45:42;23.53;;;13.17;;
6941;SDS011;3510;43.200;27.920;2024-02-21T04:48:09;33.63;;;21.13;;
6941;SDS011;3510;43.200;27.920;2024-02-21T04:50:35;31.53;;;20.33;;
6941;SDS011;3510;43.200;27.920;2024-02-21T04:53:02;17.33;;;11.23;;
6941;SDS011;3510;43.200;27.920;2024-02-21T04:55:29;35.23;;;19.13;;
6941;SDS011;3510;43.200;27.920;2024-02-21T04:57:56;35.63;;;20.87;;
6941;SDS011;3510;43.200;27.920;2024-02-21T05:00:25;38.53;;;22.20;;
6941;SDS011;3510;43.200;27.920;2024-02-21T05:02:51;38.60;;;22.37;;
6941;SDS011;3510;43.200;27.920;2024-02-21T05:05:18;42.80;;;23.77;;
6941;SDS011;3510;43.200;27.920;2024-02-21T05:07:45;41.77;;;26.00;;
6941;SDS011;3510;43.200;27.920;2024-02-21T05:10:12;38.17;;;24.87;;
6941;SDS011;3510;43.200;27.920;2024-02-21T05:12:39;38.83;;;24.93;;
6941;SDS011;3510;43.200;27.920;2024-02-21T05:15:06;42.50;;;26.50;;
6941;SDS011;3510;43.200;27.920;2024-02-21T05:17:34;46.60;;;24.60;;
6941;SDS011;3510;43.200;27.920;2024-02-21T05:20:01;45.20;;;26.90;;
6941;SDS011;3510;43.200;27.920;2024-02-21T05:22:29;43.20;;;26.33;;
6941;SDS011;3510;43.200;27.920;2024-02-21T05:24:55;49.20;;;28.30;;
6941;SDS011;3510;43.200;27.920;2024-02-21T05:27:22;55.47;;;33.47;;
6941;SDS011;3510;43.200;27.920;2024-02-21T05:29:49;54.10;;;24.87;;
6941;SDS011;3510;43.200;27.920;2024-02-21T05:32:16;49.13;;;25.63;;
6941;SDS011;3510;43.200;27.920;2024-02-21T05:34:44;45.50;;;23.00;;
6941;SDS011;3510;43.200;27.920;2024-02-21T05:37:15;66.87;;;40.13;;
6941;SDS011;3510;43.200;27.920;2024-02-21T05:39:41;53.93;;;27.77;;
6941;SDS011;3510;43.200;27.920;2024-02-21T05:42:08;67.80;;;37.17;;
6941;SDS011;3510;43.200;27.920;2024-02-21T05:44:35;57.73;;;32.87;;
6941;SDS011;3510;43.200;27.920;2024-02-21T05:47:02;70.90;;;32.33;;
6941;SDS011;3510;43.200;27.920;2024-02-21T05:49:29;65.70;;;34.20;;
6941;SDS011;3510;43.200;27.920;2024-02-21T05:51:57;74.50;;;37.87;;
6941;SDS011;3510;43.200;27.920;2024-02-21T05:54:24;69.57;;;35.80;;
6941;SDS011;3510;43.200;27.920;2024-02-21T05:56:51;89.37;;;47.90;;
6941;SDS011;3510;43.200;27.920;2024-02-21T05:59:18;84.40;;;40.73;;
6941;SDS011;3510;43.200;27.920;2024-02-21T06:01:45;108.10;;;57.27;;
6941;SDS011;3510;43.200;27.920;2024-02-21T06:04:21;66.47;;;32.97;;
6941;SDS011;3510;43.200;27.920;2024-02-21T06:06:48;94.90;;;42.00;;
6941;SDS011;3510;43.200;27.920;2024-02-21T06:09:16;76.63;;;39.27;;
6941;SDS011;3510;43.200;27.920;2024-02-21T06:11:43;84.03;;;38.83;;
6941;SDS011;3510;43.200;27.920;2024-02-21T06:14:11;76.27;;;36.60;;
6941;SDS011;3510;43.200;27.920;2024-02-21T06:16:38;68.53;;;32.20;;
6941;SDS011;3510;43.200;27.920;2024-02-21T06:19:05;62.87;;;29.90;;
6941;SDS011;3510;43.200;27.920;2024-02-21T06:21:31;50.33;;;26.03;;
6941;SDS011;3510;43.200;27.920;2024-02-21T06:23:58;48.93;;;25.03;;
6941;SDS011;3510;43.200;27.920;2024-02-21T06:26:27;51.87;;;24.73;;
6941;SDS011;3510;43.200;27.920;2024-02-21T06:28:53;24.63;;;15.47;;
6941;SDS011;3510;43.200;27.920;2024-02-21T06:31:20;45.57;;;23.30;;
6941;SDS011;3510;43.200;27.920;2024-02-21T06:33:47;44.03;;;20.07;;
6941;SDS011;3510;43.200;27.920;2024-02-21T06:36:14;36.13;;;16.43;;
6941;SDS011;3510;43.200;27.920;2024-02-21T06:38:41;49.57;;;23.97;;
6941;SDS011;3510;43.200;27.920;2024-02-21T06:41:14;43.50;;;23.80;;
6941;SDS011;3510;43.200;27.920;2024-02-21T06:43:51;52.43;;;24.30;;
6941;SDS011;3510;43.200;27.920;2024-02-21T06:46:24;49.40;;;31.13;;
6941;SDS011;3510;43.200;27.920;2024-02-21T06:48:52;37.30;;;18.27;;
6941;SDS011;3510;43.200;27.920;2024-02-21T06:51:18;30.90;;;16.03;;
6941;SDS011;3510;43.200;27.920;2024-02-21T06:53:45;26.03;;;16.37;;
6941;SDS011;3510;43.200;27.920;2024-02-21T06:56:12;37.30;;;18.07;;
6941;SDS011;3510;43.200;27.920;2024-02-21T06:58:39;32.80;;;16.70;;
6941;SDS011;3510;43.200;27.920;2024-02-21T07:01:08;28.90;;;16.50;;
6941;SDS011;3510;43.200;27.920;2024-02-21T07:03:35;34.73;;;17.77;;
6941;SDS011;3510;43.200;27.920;2024-02-21T07:06:02;37.17;;;20.90;;
6941;SDS011;3510;43.200;27.920;2024-02-21T07:08:32;38.53;;;20.40;;
6941;SDS011;3510;43.200;27.920;2024-02-21T07:10:59;40.80;;;18.80;;
6941;SDS011;3510;43.200;27.920;2024-02-21T07:13:26;35.43;;;19.93;;
6941;SDS011;3510;43.200;27.920;2024-02-21T07:15:53;51.20;;;30.07;;
6941;SDS011;3510;43.200;27.920;2024-02-21T07:18:21;47.00;;;27.83;;
6941;SDS011;3510;43.200;27.920;2024-02-21T07:20:50;44.23;;;21.63;;
6941;SDS011;3510;43.200;27.920;2024-02-21T07:23:17;52.17;;;26.57;;
6941;SDS011;3510;43.200;27.920;2024-02-21T07:25:43;47.63;;;24.00;;
6941;SDS011;3510;43.200;27.920;2024-02-21T07:28:10;57.00;;;30.83;;
6941;SDS011;3510;43.200;27.920;2024-02-21T07:30:38;64.17;;;31.90;;
6941;SDS011;3510;43.200;27.920;2024-02-21T07:33:05;68.57;;;28.70;;
6941;SDS011;3510;43.200;27.920;2024-02-21T07:38:32;57.67;;;31.63;;
6941;SDS011;3510;43.200;27.920;2024-02-21T07:40:58;60.73;;;29.77;;
6941;SDS011;3510;43.200;27.920;2024-02-21T07:43:25;61.87;;;30.43;;
6941;SDS011;3510;43.200;27.920;2024-02-21T07:45:52;61.77;;;34.57;;
6941;SDS011;3510;43.200;27.920;2024-02-21T07:48:20;70.93;;;34.53;;
6941;SDS011;3510;43.200;27.920;2024-02-21T07:50:49;61.93;;;34.70;;
6941;SDS011;3510;43.200;27.920;2024-02-21T07:53:19;62.80;;;34.73;;
6941;SDS011;3510;43.200;27.920;2024-02-21T07:55:46;52.83;;;28.67;;
6941;SDS011;3510;43.200;27.920;2024-02-21T07:58:13;70.60;;;41.37;;
6941;SDS011;3510;43.200;27.920;2024-02-21T08:00:40;66.97;;;31.63;;
6941;SDS011;3510;43.200;27.920;2024-02-21T08:03:07;50.70;;;29.13;;
6941;SDS011;3510;43.200;27.920;2024-02-21T08:05:34;56.70;;;33.13;;
6941;SDS011;3510;43.200;27.920;2024-02-21T08:08:01;55.53;;;31.93;;
6941;SDS011;3510;43.200;27.920;2024-02-21T08:10:30;65.80;;;30.47;;
6941;SDS011;3510;43.200;27.920;2024-02-21T08:12:57;68.17;;;34.30;;
6941;SDS011;3510;43.200;27.920;2024-02-21T08:15:24;62.43;;;31.53;;
6941;SDS011;3510;43.200;27.920;2024-02-21T08:17:54;65.20;;;33.57;;
6941;SDS011;3510;43.200;27.920;2024-02-21T08:20:24;57.07;;;31.67;;
6941;SDS011;3510;43.200;27.920;2024-02-21T08:22:51;64.73;;;31.43;;
6941;SDS011;3510;43.200;27.920;2024-02-21T08:25:18;60.63;;;31.17;;
6941;SDS011;3510;43.200;27.920;2024-02-21T08:27:47;54.03;;;29.37;;
6941;SDS011;3510;43.200;27.920;2024-02-21T08:30:15;54.87;;;30.10;;
6941;SDS011;3510;43.200;27.920;2024-02-21T08:32:42;49.90;;;28.27;;
6941;SDS011;3510;43.200;27.920;2024-02-21T08:35:09;49.07;;;25.93;;
6941;SDS011;3510;43.200;27.920;2024-02-21T08:37:37;37.67;;;21.20;;
6941;SDS011;3510;43.200;27.920;2024-02-21T08:40:04;47.07;;;25.80;;
6941;SDS011;3510;43.200;27.920;2024-02-21T08:42:33;47.80;;;30.13;;
6941;SDS011;3510;43.200;27.920;2024-02-21T08:45:02;45.17;;;22.20;;
6941;SDS011;3510;43.200;27.920;2024-02-21T08:47:30;29.60;;;17.97;;
6941;SDS011;3510;43.200;27.920;2024-02-21T08:49:56;26.07;;;13.87;;
6941;SDS011;3510;43.200;27.920;2024-02-21T08:52:23;32.63;;;18.63;;
6941;SDS011;3510;43.200;27.920;2024-02-21T08:54:50;42.67;;;20.97;;
6941;SDS011;3510;43.200;27.920;2024-02-21T08:57:18;46.43;;;25.57;;
6941;SDS011;3510;43.200;27.920;2024-02-21T08:59:59;46.57;;;26.20;;
6941;SDS011;3510;43.200;27.920;2024-02-21T09:05:24;52.83;;;28.57;;
6941;SDS011;3510;43.200;27.920;2024-02-21T09:07:50;45.50;;;28.00;;
6941;SDS011;3510;43.200;27.920;2024-02-21T09:10:17;42.93;;;27.33;;
6941;SDS011;3510;43.200;27.920;2024-02-21T09:12:44;34.40;;;20.73;;
6941;SDS011;3510;43.200;27.920;2024-02-21T09:15:12;47.87;;;22.30;;
6941;SDS011;3510;43.200;27.920;2024-02-21T09:17:53;31.17;;;17.57;;
6941;SDS011;3510;43.200;27.920;2024-02-21T09:29:39;22.53;;;13.17;;
6941;SDS011;3510;43.200;27.920;2024-02-21T09:32:06;18.87;;;12.87;;
6941;SDS011;3510;43.200;27.920;2024-02-21T09:34:33;18.93;;;11.87;;
6941;SDS011;3510;43.200;27.920;2024-02-21T09:37:00;17.57;;;11.07;;
6941;SDS011;3510;43.200;27.920;2024-02-21T09:39:27;19.93;;;13.87;;
6941;SDS011;3510;43.200;27.920;2024-02-21T09:41:59;19.07;;;12.80;;
6941;SDS011;3510;43.200;27.920;2024-02-21T09:44:36;22.30;;;13.50;;
6941;SDS011;3510;43.200;27.920;2024-02-21T09:47:05;20.20;;;13.63;;
6941;SDS011;3510;43.200;27.920;2024-02-21T09:49:37;18.00;;;12.53;;
6941;SDS011;3510;43.200;27.920;2024-02-21T09:52:17;17.90;;;12.17;;
6941;SDS011;3510;43.200;27.920;2024-02-21T09:54:47;16.80;;;11.30;;
6941;SDS011;3510;43.200;27.920;2024-02-21T09:57:14;18.93;;;11.10;;
6941;SDS011;3510;43.200;27.920;2024-02-21T09:59:43;22.07;;;12.90;;
6941;SDS011;3510;43.200;27.920;2024-02-21T10:02:11;22.77;;;12.90;;
6941;SDS011;3510;43.200;27.920;2024-02-21T10:04:39;15.43;;;11.47;;
6941;SDS011;3510;43.200;27.920;2024-02-21T10:07:06;16.37;;;12.00;;
6941;SDS011;3510;43.200;27.920;2024-02-21T10:09:34;22.47;;;13.93;;
6941;SDS011;3510;43.200;27.920;2024-02-21T10:12:15;29.40;;;16.20;;
6941;SDS011;3510;43.200;27.920;2024-02-21T10:20:44;28.03;;;16.30;;
6941;SDS011;3510;43.200;27.920;2024-02-21T10:23:11;27.13;;;15.77;;
6941;SDS011;3510;43.200;27.920;2024-02-21T10:25:37;25.87;;;16.33;;
6941;SDS011;3510;43.200;27.920;2024-02-21T10:28:08;27.27;;;15.40;;
6941;SDS011;3510;43.200;27.920;2024-02-21T10:30:49;25.57;;;15.87;;
6941;SDS011;3510;43.200;27.920;2024-02-21T10:33:17;25.00;;;15.97;;
6941;SDS011;3510;43.200;27.920;2024-02-21T10:35:46;25.43;;;17.10;;
6941;SDS011;3510;43.200;27.920;2024-02-21T10:38:14;29.67;;;17.67;;
6941;SDS011;3510;43.200;27.920;2024-02-21T10:40:41;36.93;;;17.90;;
6941;SDS011;3510;43.200;27.920;2024-02-21T10:43:11;27.80;;;16.30;;
6941;SDS011;3510;43.200;27.920;2024-02-21T10:45:40;24.50;;;15.47;;
6941;SDS011;3510;43.200;27.920;2024-02-21T10:48:08;24.77;;;16.10;;
6941;SDS011;3510;43.200;27.920;2024-02-21T10:50:42;31.53;;;16.63;;
6941;SDS011;3510;43.200;27.920;2024-02-21T10:53:24;27.70;;;17.80;;
6941;SDS011;3510;43.200;27.920;2024-02-21T10:56:06;30.93;;;17.57;;
6941;SDS011;3510;43.200;27.920;2024-02-21T10:58:43;27.70;;;15.97;;
6941;SDS011;3510;43.200;27.920;2024-02-21T11:01:12;27.10;;;16.63;;
6941;SDS011;3510;43.200;27.920;2024-02-21T11:03:40;23.27;;;16.47;;
6941;SDS011;3510;43.200;27.920;2024-02-21T11:06:09;26.83;;;16.80;;
6941;SDS011;3510;43.200;27.920;2024-02-21T11:08:38;28.37;;;16.37;;
6941;SDS011;3510;43.200;27.920;2024-02-21T11:11:05;33.03;;;17.10;;
6941;SDS011;3510;43.200;27.920;2024-02-21T11:13:38;24.57;;;15.80;;
6941;SDS011;3510;43.200;27.920;2024-02-21T11:16:08;28.03;;;16.77;;
6941;SDS011;3510;43.200;27.920;2024-02-21T11:18:37;29.17;;;18.43;;
6941;SDS011;3510;43.200;27.920;2024-02-21T11:21:07;33.67;;;16.63;;
6941;SDS011;3510;43.200;27.920;2024-02-21T11:29:43;25.63;;;15.40;;
6941;SDS011;3510;43.200;27.920;2024-02-21T11:32:25;22.80;;;15.07;;
6941;SDS011;3510;43.200;27.920;2024-02-21T11:35:06;26.27;;;15.80;;
6941;SDS011;3510;43.200;27.920;2024-02-21T11:37:34;22.33;;;14.60;;
6941;SDS011;3510;43.200;27.920;2024-02-21T11:40:04;19.80;;;14.57;;
6941;SDS011;3510;43.200;27.920;2024-02-21T11:42:45;21.97;;;14.13;;
6941;SDS011;3510;43.200;27.920;2024-02-21T11:51:34;20.63;;;13.73;;
6941;SDS011;3510;43.200;27.920;2024-02-21T11:54:01;25.10;;;13.17;;
6941;SDS011;3510;43.200;27.920;2024-02-21T11:56:30;22.40;;;13.60;;
6941;SDS011;3510;43.200;27.920;2024-02-21T11:59:10;23.00;;;14.40;;
6941;SDS011;3510;43.200;27.920;2024-02-21T12:01:52;24.10;;;14.43;;
6941;SDS011;3510;43.200;27.920;2024-02-21T12:04:33;20.03;;;14.20;;
6941;SDS011;3510;43.200;27.920;2024-02-21T12:07:01;19.37;;;12.67;;
6941;SDS011;3510;43.200;27.920;2024-02-21T12:09:42;25.13;;;13.90;;
6941;SDS011;3510;43.200;27.920;2024-02-21T12:12:23;23.93;;;14.63;;
6941;SDS011;3510;43.200;27.920;2024-02-21T12:15:04;22.17;;;14.83;;
6941;SDS011;3510;43.200;27.920;2024-02-21T12:17:32;23.07;;;14.07;;
6941;SDS011;3510;43.200;27.920;2024-02-21T12:20:00;28.30;;;14.83;;
6941;SDS011;3510;43.200;27.920;2024-02-21T12:22:32;25.83;;;15.30;;
6941;SDS011;3510;43.200;27.920;2024-02-21T12:24:59;27.90;;;15.43;;
6941;SDS011;3510;43.200;27.920;2024-02-21T12:27:26;27.80;;;15.67;;
6941;SDS011;3510;43.200;27.920;2024-02-21T12:29:53;30.33;;;15.37;;
6941;SDS011;3510;43.200;27.920;2024-02-21T12:32:20;26.17;;;15.27;;
6941;SDS011;3510;43.200;27.920;2024-02-21T12:34:49;23.00;;;14.30;;
6941;SDS011;3510;43.200;27.920;2024-02-21T12:37:16;29.10;;;16.73;;
6941;SDS011;3510;43.200;27.920;2024-02-21T12:39:45;24.57;;;15.13;;
6941;SDS011;3510;43.200;27.920;2024-02-21T12:42:13;28.10;;;14.87;;
6941;SDS011;3510;43.200;27.920;2024-02-21T12:44:40;19.23;;;12.23;;
6941;SDS011;3510;43.200;27.920;2024-02-21T12:47:07;20.70;;;14.83;;
6941;SDS011;3510;43.200;27.920;2024-02-21T12:49:34;26.60;;;14.67;;
6941;SDS011;3510;43.200;27.920;2024-02-21T12:52:01;20.93;;;13.23;;
6941;SDS011;3510;43.200;27.920;2024-02-21T12:54:28;21.03;;;13.03;;
6941;SDS011;3510;43.200;27.920;2024-02-21T12:56:58;17.20;;;11.77;;
6941;SDS011;3510;43.200;27.920;2024-02-21T12:59:28;21.13;;;12.47;;
6941;SDS011;3510;43.200;27.920;2024-02-21T13:01:55;16.07;;;11.03;;
6941;SDS011;3510;43.200;27.920;2024-02-21T13:04:22;15.27;;;9.80;;
6941;SDS011;3510;43.200;27.920;2024-02-21T13:06:49;17.57;;;11.13;;
6941;SDS011;3510;43.200;27.920;2024-02-21T13:09:16;14.67;;;10.37;;
6941;SDS011;3510;43.200;27.920;2024-02-21T13:11:43;13.10;;;9.87;;
6941;SDS011;3510;43.200;27.920;2024-02-21T13:14:12;18.37;;;9.93;;
6941;SDS011;3510;43.200;27.920;2024-02-21T13:16:39;14.20;;;9.93;;
6941;SDS011;3510;43.200;27.920;2024-02-21T13:19:07;15.67;;;9.40;;
6941;SDS011;3510;43.200;27.920;2024-02-21T13:21:35;14.23;;;9.00;;
6941;SDS011;3510;43.200;27.920;2024-02-21T13:24:02;14.03;;;8.47;;
6941;SDS011;3510;43.200;27.920;2024-02-21T13:26:30;13.93;;;8.40;;
6941;SDS011;3510;43.200;27.920;2024-02-21T13:28:57;14.67;;;9.03;;
6941;SDS011;3510;43.200;27.920;2024-02-21T13:31:25;13.80;;;8.97;;
6941;SDS011;3510;43.200;27.920;2024-02-21T13:33:52;14.70;;;8.63;;
6941;SDS011;3510;43.200;27.920;2024-02-21T13:36:19;11.90;;;8.37;;
6941;SDS011;3510;43.200;27.920;2024-02-21T13:38:46;11.53;;;8.57;;
6941;SDS011;3510;43.200;27.920;2024-02-21T13:41:13;12.90;;;9.33;;
6941;SDS011;3510;43.200;27.920;2024-02-21T13:43:41;16.93;;;10.63;;
6941;SDS011;3510;43.200;27.920;2024-02-21T13:46:08;10.60;;;6.90;;
6941;SDS011;3510;43.200;27.920;2024-02-21T13:48:38;13.93;;;9.67;;
6941;SDS011;3510;43.200;27.920;2024-02-21T13:51:05;15.07;;;10.10;;
6941;SDS011;3510;43.200;27.920;2024-02-21T13:53:32;14.20;;;9.27;;
6941;SDS011;3510;43.200;27.920;2024-02-21T13:55:59;15.27;;;9.33;;
6941;SDS011;3510;43.200;27.920;2024-02-21T13:58:31;9.90;;;7.93;;
6941;SDS011;3510;43.200;27.920;2024-02-21T14:00:58;16.60;;;8.13;;
6941;SDS011;3510;43.200;27.920;2024-02-21T14:03:25;16.27;;;8.70;;
6941;SDS011;3510;43.200;27.920;2024-02-21T14:05:58;15.53;;;9.53;;
6941;SDS011;3510;43.200;27.920;2024-02-21T14:08:25;12.50;;;8.70;;
6941;SDS011;3510;43.200;27.920;2024-02-21T14:10:57;15.37;;;9.50;;
6941;SDS011;3510;43.200;27.920;2024-02-21T14:13:25;14.87;;;9.17;;
6941;SDS011;3510;43.200;27.920;2024-02-21T14:15:53;12.37;;;8.40;;
6941;SDS011;3510;43.200;27.920;2024-02-21T14:18:24;15.53;;;9.43;;
6941;SDS011;3510;43.200;27.920;2024-02-21T14:21:00;12.27;;;9.70;;
6941;SDS011;3510;43.200;27.920;2024-02-21T14:23:27;16.83;;;9.07;;
6941;SDS011;3510;43.200;27.920;2024-02-21T14:25:54;10.50;;;8.53;;
6941;SDS011;3510;43.200;27.920;2024-02-21T14:28:25;13.93;;;9.00;;
6941;SDS011;3510;43.200;27.920;2024-02-21T14:30:52;13.20;;;7.70;;
6941;SDS011;3510;43.200;27.920;2024-02-21T14:33:22;11.13;;;8.07;;
6941;SDS011;3510;43.200;27.920;2024-02-21T14:35:49;12.37;;;8.47;;
6941;SDS011;3510;43.200;27.920;2024-02-21T14:38:19;11.43;;;8.90;;
6941;SDS011;3510;43.200;27.920;2024-02-21T14:40:47;12.40;;;9.20;;
6941;SDS011;3510;43.200;27.920;2024-02-21T14:43:15;12.77;;;8.90;;
6941;SDS011;3510;43.200;27.920;2024-02-21T14:45:43;9.83;;;8.30;;
6941;SDS011;3510;43.200;27.920;2024-02-21T14:48:12;16.67;;;9.13;;
6941;SDS011;3510;43.200;27.920;2024-02-21T14:50:41;17.00;;;9.17;;
6941;SDS011;3510;43.200;27.920;2024-02-21T14:53:08;14.50;;;7.97;;
6941;SDS011;3510;43.200;27.920;2024-02-21T14:55:37;12.37;;;7.70;;
6941;SDS011;3510;43.200;27.920;2024-02-21T14:58:08;13.30;;;8.13;;
6941;SDS011;3510;43.200;27.920;2024-02-21T15:00:38;14.60;;;9.03;;
6941;SDS011;3510;43.200;27.920;2024-02-21T15:03:19;9.17;;;7.57;;
6941;SDS011;3510;43.200;27.920;2024-02-21T15:06:00;13.53;;;7.67;;
6941;SDS011;3510;43.200;27.920;2024-02-21T15:08:43;8.30;;;6.87;;
6941;SDS011;3510;43.200;27.920;2024-02-21T15:14:23;12.77;;;9.27;;
6941;SDS011;3510;43.200;27.920;2024-02-21T15:16:53;7.40;;;6.63;;
6941;SDS011;3510;43.200;27.920;2024-02-21T15:19:20;11.83;;;6.70;;
6941;SDS011;3510;43.200;27.920;2024-02-21T15:21:49;13.47;;;6.83;;